Search for airport 
image banner adimage banner adimage banner ad
image banner ad

2CL7 - Glendale Plaza Emergency

Located in Glendale, United States

ICAO - 2CL7, IATA -

Data provided by Airmate  

General information

Coordinates: N34°9'20" W118°15'31"
Elevation is 904 feet MSL.
Magnetic variation is 14° East
View others Airports in California

Operational data

Special qualification required
Current time UTC:
Current local time:
Weather at : KBUR - Bob Hope ( 10 km )
METAR: KBUR 292053Z 16009KT 10SM CLR 33/12 A2988 RMK AO2 SLP103 T03280122 56014 $
TAF: KBUR 291736Z 2918/3018 17004KT P6SM SKC FM291900 17009KT P6SM SKC FM300200 13006KT P6SM SKC FM300800 VRB03KT P6SM SKC
View NOTAMs / SUP AIP / TFR affecting this airport [VIEW]
Communications frequencies: [VIEW]

Runways:

Airport contact information

Address: Glendale United States

Satellite view of 2CL7